Time;durP1;ratioP1;P1;durP2;ratioP2;P2;SDS_P1;SDS_P2;PMS_P1;PMS_P2;Temp;Humidity;BMP_temperature;BMP_pressure;BME280_temperature;BME280_humidity;BME280_pressure;Samples;Min_cycle;Max_cycle;Signal;HPM_P1;HPM_P2
2022/05/17 00:01:52;;;;;;;6.93;5.67;;;22.60;95.00;;;;;;4999862;28;20436;-90
2022/05/17 00:04:18;;;;;;;10.80;6.60;;;22.60;95.20;;;;;;5000721;28;20221;-87
2022/05/17 00:06:43;;;;;;;9.47;6.80;;;22.50;95.30;;;;;;5018993;28;20535;-88
2022/05/17 00:09:09;;;;;;;7.40;6.00;;;22.50;95.60;;;;;;5000995;28;20197;-90
2022/05/17 00:11:35;;;;;;;6.47;5.83;;;22.40;95.70;;;;;;5000295;28;20179;-88
2022/05/17 00:14:01;;;;;;;8.37;6.90;;;22.40;95.80;;;;;;5018076;28;20175;-90
2022/05/17 00:16:27;;;;;;;10.17;5.90;;;22.30;95.80;;;;;;5017358;28;20597;-89
2022/05/17 00:18:53;;;;;;;9.47;7.33;;;22.30;95.80;;;;;;5002991;28;20183;-90
2022/05/17 00:21:19;;;;;;;8.87;6.33;;;22.20;95.80;;;;;;5020386;28;20894;-90
2022/05/17 00:23:45;;;;;;;6.00;5.37;;;22.20;95.90;;;;;;5000898;28;20748;-87
2022/05/17 00:26:11;;;;;;;9.83;6.67;;;22.10;96.00;;;;;;4996050;28;20462;-88
2022/05/17 00:28:38;;;;;;;9.33;6.47;;;22.10;96.10;;;;;;4980773;28;20442;-88
2022/05/17 00:31:06;;;;;;;7.40;6.57;;;22.10;96.50;;;;;;4998770;28;20679;-90
2022/05/17 00:33:33;;;;;;;8.27;6.57;;;22.00;96.30;;;;;;4981430;28;20461;-89
2022/05/17 00:35:59;;;;;;;6.93;6.27;;;22.00;96.50;;;;;;4980788;28;20416;-89
2022/05/17 00:38:25;;;;;;;13.70;7.60;;;22.00;96.70;;;;;;4997484;28;20950;-87
2022/05/17 00:40:51;;;;;;;9.30;6.97;;;21.90;96.70;;;;;;4980444;28;20180;-90
2022/05/17 00:46:24;;;;;;;7.13;6.43;;;21.80;96.80;;;;;;4998517;28;20404;-87
2022/05/17 00:48:51;;;;;;;9.03;6.10;;;21.80;96.90;;;;;;4999401;28;20422;-90
2022/05/17 00:51:17;;;;;;;8.07;7.27;;;21.80;96.70;;;;;;5005938;28;20417;-89
2022/05/17 00:53:43;;;;;;;9.37;7.17;;;21.70;96.50;;;;;;4996523;28;20518;-90
2022/05/17 00:56:19;;;;;;;6.80;6.10;;;21.70;96.40;;;;;;4995968;28;20492;-90
2022/05/17 00:58:53;;;;;;;10.43;7.13;;;21.60;96.40;;;;;;4978758;28;20440;-90
2022/05/17 01:01:23;;;;;;;8.77;6.50;;;21.60;97.00;;;;;;4995550;28;20397;-88
2022/05/17 01:04:03;;;;;;;9.80;6.43;;;21.60;97.20;;;;;;4978770;28;20498;-88
2022/05/17 01:06:35;;;;;;;7.77;6.73;;;21.50;96.90;;;;;;4979292;28;20433;-92
2022/05/17 01:09:01;;;;;;;8.47;7.13;;;21.50;97.10;;;;;;4996338;28;20428;-91
2022/05/17 01:11:27;;;;;;;7.57;6.53;;;21.50;97.10;;;;;;4995995;28;20406;-92
2022/05/17 01:16:37;;;;;;;9.50;5.90;;;21.40;96.80;;;;;;4996278;28;20246;-88
2022/05/17 01:19:06;;;;;;;9.53;7.23;;;21.40;96.80;;;;;;4996340;28;20425;-90
2022/05/17 01:21:32;;;;;;;11.30;5.80;;;21.30;97.20;;;;;;4995789;28;20179;-90
2022/05/17 01:23:58;;;;;;;7.30;6.60;;;21.30;97.10;;;;;;4995502;28;20483;-88
2022/05/17 01:26:26;;;;;;;7.03;6.33;;;21.20;96.80;;;;;;5000650;28;20407;-89
2022/05/17 01:28:52;;;;;;;8.20;6.50;;;21.10;96.70;;;;;;5015551;28;20183;-87
2022/05/17 01:31:20;;;;;;;9.30;6.70;;;21.10;97.20;;;;;;4997997;28;20416;-90
2022/05/17 01:33:45;;;;;;;8.60;6.83;;;21.10;97.00;;;;;;4998449;28;20220;-88
2022/05/17 01:36:15;;;;;;;9.50;7.10;;;21.00;97.10;;;;;;4998507;28;20825;-88
2022/05/17 01:38:45;;;;;;;9.13;7.13;;;20.90;97.20;;;;;;4997696;28;20230;-90
2022/05/17 01:41:11;;;;;;;7.43;5.80;;;20.90;97.50;;;;;;4997930;28;20420;-88
2022/05/17 01:43:37;;;;;;;12.57;6.87;;;20.80;97.50;;;;;;4997848;28;20487;-88
2022/05/17 01:46:08;;;;;;;9.47;7.87;;;20.70;97.60;;;;;;4997900;28;20462;-88
2022/05/17 01:48:35;;;;;;;9.73;7.73;;;20.70;97.70;;;;;;4998556;28;20687;-88
2022/05/17 01:51:01;;;;;;;10.43;7.63;;;20.70;97.70;;;;;;5016260;28;20932;-89
2022/05/17 01:53:27;;;;;;;15.00;7.33;;;20.60;97.80;;;;;;4999151;28;20447;-90
2022/05/17 01:55:52;;;;;;;9.30;7.57;;;20.60;98.00;;;;;;5000661;28;20922;-88
2022/05/17 01:58:18;;;;;;;9.33;7.33;;;20.60;98.10;;;;;;5001962;28;20470;-90
2022/05/17 02:00:45;;;;;;;9.67;8.13;;;20.60;98.10;;;;;;4998347;28;20178;-88
2022/05/17 02:03:10;;;;;;;10.77;6.70;;;20.50;98.20;;;;;;5014430;28;20587;-88
2022/05/17 02:05:36;;;;;;;13.13;8.00;;;20.50;98.30;;;;;;4997194;28;20443;-89
2022/05/17 02:08:02;;;;;;;10.87;7.83;;;20.50;98.40;;;;;;5014789;28;20281;-88
2022/05/17 02:10:28;;;;;;;11.53;8.33;;;20.40;98.50;;;;;;4996901;28;20232;-90
2022/05/17 02:12:55;;;;;;;8.77;7.27;;;20.40;98.70;;;;;;4997399;28;20198;-90
2022/05/17 02:15:21;;;;;;;8.60;7.23;;;20.40;98.70;;;;;;5001844;28;20332;-90
2022/05/17 02:17:47;;;;;;;7.80;6.77;;;20.40;98.90;;;;;;5019081;28;20438;-88
2022/05/17 02:20:13;;;;;;;9.90;7.53;;;20.40;99.10;;;;;;5002360;28;20402;-89
2022/05/17 02:22:39;;;;;;;9.03;7.90;;;20.30;99.20;;;;;;5019453;28;20550;-90
2022/05/17 02:25:05;;;;;;;7.93;6.53;;;20.30;99.30;;;;;;5019625;28;20462;-88
2022/05/17 02:27:32;;;;;;;8.27;6.50;;;20.30;99.30;;;;;;4986961;28;20206;-89
2022/05/17 02:29:58;;;;;;;13.33;7.60;;;20.30;99.50;;;;;;5000306;28;20446;-88
2022/05/17 02:32:23;;;;;;;8.37;7.00;;;20.30;99.70;;;;;;4999745;28;20420;-93
2022/05/17 02:34:49;;;;;;;10.60;7.57;;;20.30;99.90;;;;;;5001154;28;20183;-90
2022/05/17 02:37:15;;;;;;;10.40;7.50;;;20.20;99.90;;;;;;5000560;28;20202;-90
2022/05/17 02:39:42;;;;;;;17.10;7.60;;;20.20;99.90;;;;;;4982982;28;20194;-90
2022/05/17 02:42:09;;;;;;;9.00;7.40;;;20.10;99.90;;;;;;4982858;28;20203;-92
2022/05/17 02:44:35;;;;;;;10.13;7.37;;;20.10;99.90;;;;;;4983429;28;20483;-92
2022/05/17 02:47:01;;;;;;;12.77;7.97;;;20.10;99.90;;;;;;5000929;28;20435;-92
2022/05/17 02:49:27;;;;;;;10.30;7.20;;;20.00;99.90;;;;;;4983346;28;20432;-90
2022/05/17 02:51:54;;;;;;;10.27;6.70;;;20.00;99.90;;;;;;5000066;28;20956;-91
2022/05/17 02:54:21;;;;;;;9.43;7.53;;;19.90;99.90;;;;;;4982599;28;20942;-91
2022/05/17 02:56:46;;;;;;;12.17;7.27;;;19.90;99.90;;;;;;5000143;28;20894;-92
2022/05/17 02:59:17;;;;;;;13.47;7.40;;;19.80;99.90;;;;;;4983972;28;20453;-90
2022/05/17 03:01:44;;;;;;;11.63;7.43;;;19.80;99.90;;;;;;4984092;28;20561;-91
2022/05/17 03:04:12;;;;;;;9.10;7.07;;;19.70;99.90;;;;;;4983352;28;20859;-93
2022/05/17 03:06:38;;;;;;;9.60;7.90;;;19.60;99.90;;;;;;4999200;28;20424;-91
2022/05/17 03:09:04;;;;;;;11.57;8.10;;;19.60;99.90;;;;;;4982183;28;20427;-91
2022/05/17 03:11:30;;;;;;;9.70;7.27;;;19.50;99.90;;;;;;4983182;28;20440;-90
2022/05/17 03:13:56;;;;;;;9.17;7.37;;;19.50;99.90;;;;;;4985822;28;20452;-92
2022/05/17 03:16:28;;;;;;;10.40;8.20;;;19.40;99.90;;;;;;4988672;28;20263;-92
2022/05/17 03:18:54;;;;;;;11.23;8.93;;;19.30;99.90;;;;;;4985826;28;20235;-93
2022/05/17 03:21:20;;;;;;;12.77;9.33;;;19.30;99.90;;;;;;4985238;28;20464;-91
2022/05/17 03:23:45;;;;;;;10.60;7.67;;;19.30;99.90;;;;;;4983088;28;20249;-92
2022/05/17 03:26:11;;;;;;;11.40;8.33;;;19.30;99.90;;;;;;4989532;28;20212;-89
2022/05/17 03:28:37;;;;;;;10.83;7.40;;;19.30;99.90;;;;;;4999991;28;20201;-93
2022/05/17 03:31:07;;;;;;;11.27;7.97;;;19.30;99.90;;;;;;5017088;28;20263;-92
2022/05/17 03:33:33;;;;;;;13.40;9.30;;;19.30;99.90;;;;;;5017251;28;20237;-93
2022/05/17 03:35:59;;;;;;;11.70;8.40;;;19.30;99.90;;;;;;5000280;28;20441;-92
2022/05/17 03:38:26;;;;;;;14.77;8.83;;;19.40;99.90;;;;;;5017955;28;20434;-91
2022/05/17 03:40:52;;;;;;;13.27;7.27;;;19.50;99.90;;;;;;5017204;28;20663;-92
2022/05/17 03:43:19;;;;;;;11.03;7.73;;;19.50;99.90;;;;;;5017824;28;20477;-93
2022/05/17 03:45:45;;;;;;;12.57;8.00;;;19.50;99.90;;;;;;5017341;28;20415;-91
2022/05/17 03:48:12;;;;;;;10.80;8.00;;;19.50;99.90;;;;;;5016924;28;20663;-93
2022/05/17 03:50:38;;;;;;;10.73;7.83;;;19.60;99.90;;;;;;4999945;28;20418;-94
2022/05/17 03:53:04;;;;;;;17.40;10.90;;;19.60;99.90;;;;;;4999124;28;20818;-94
2022/05/17 03:55:30;;;;;;;13.07;8.47;;;19.60;99.90;;;;;;4999921;28;20185;-92
2022/05/17 03:57:56;;;;;;;11.60;7.90;;;19.70;99.90;;;;;;4999993;28;20500;-93
2022/05/17 04:00:22;;;;;;;14.10;8.87;;;19.70;99.90;;;;;;5017958;28;20409;-90
2022/05/17 04:02:48;;;;;;;12.57;9.23;;;19.70;99.90;;;;;;5000653;28;20453;-94
2022/05/17 04:05:14;;;;;;;12.00;8.50;;;19.80;99.90;;;;;;5018491;28;20179;-92
2022/05/17 04:07:39;;;;;;;13.27;9.30;;;19.80;99.90;;;;;;5017238;28;20780;-90
2022/05/17 04:10:12;;;;;;;11.53;7.60;;;19.80;99.90;;;;;;5018170;28;20460;-90
2022/05/17 04:12:39;;;;;;;19.30;9.73;;;19.90;99.90;;;;;;4999947;28;20681;-92
2022/05/17 04:15:07;;;;;;;10.57;8.23;;;19.90;99.90;;;;;;4999705;28;20481;-90
2022/05/17 04:17:33;;;;;;;13.30;8.67;;;20.00;99.90;;;;;;5018741;28;20512;-91
2022/05/17 04:19:59;;;;;;;10.50;8.03;;;20.10;99.90;;;;;;5001686;28;20432;-90
2022/05/17 04:22:26;;;;;;;9.13;8.13;;;20.10;99.90;;;;;;4999566;28;20207;-87
2022/05/17 04:24:56;;;;;;;10.23;8.20;;;20.20;99.90;;;;;;4999162;28;20481;-88
2022/05/17 04:27:23;;;;;;;9.37;7.90;;;20.30;99.90;;;;;;5000747;28;20442;-91
2022/05/17 04:29:49;;;;;;;9.50;8.00;;;20.30;99.90;;;;;;5018164;28;20473;-90
2022/05/17 04:32:15;;;;;;;12.57;9.07;;;20.40;99.90;;;;;;5000428;28;20672;-88
2022/05/17 04:34:41;;;;;;;9.97;7.70;;;20.50;99.90;;;;;;4998742;28;20431;-91
2022/05/17 04:37:07;;;;;;;9.70;7.43;;;20.50;99.90;;;;;;5016207;28;20267;-88
2022/05/17 04:39:33;;;;;;;10.47;7.30;;;20.60;99.90;;;;;;5000780;28;20480;-88
2022/05/17 04:41:59;;;;;;;16.47;9.43;;;20.60;99.90;;;;;;5027660;28;20261;-87
2022/05/17 04:44:26;;;;;;;12.23;7.33;;;20.70;99.90;;;;;;5000326;28;20585;-90
2022/05/17 04:46:52;;;;;;;14.30;8.17;;;20.80;99.90;;;;;;5016718;28;20436;-87
2022/05/17 04:49:17;;;;;;;10.33;7.93;;;20.80;99.90;;;;;;4996907;28;20420;-89
2022/05/17 04:51:43;;;;;;;10.53;8.37;;;20.90;99.90;;;;;;4994534;28;20459;-89
2022/05/17 04:54:09;;;;;;;10.13;7.93;;;21.00;99.90;;;;;;4997727;28;20648;-91
2022/05/17 04:56:36;;;;;;;10.40;8.00;;;21.00;99.90;;;;;;5014673;28;20511;-89
2022/05/17 04:59:03;;;;;;;9.93;7.80;;;21.10;99.90;;;;;;4996724;28;20443;-87
2022/05/17 05:01:31;;;;;;;9.40;7.73;;;21.10;99.90;;;;;;4996334;28;20418;-91
2022/05/17 05:03:57;;;;;;;8.70;7.47;;;21.10;99.90;;;;;;4995708;28;20487;-88
2022/05/17 05:06:23;;;;;;;9.30;8.30;;;21.20;99.90;;;;;;5013979;28;20455;-91
2022/05/17 05:08:49;;;;;;;10.93;7.97;;;21.20;99.90;;;;;;4997771;28;20433;-88
2022/05/17 05:11:15;;;;;;;9.57;7.23;;;21.20;99.90;;;;;;4998250;28;20425;-88
2022/05/17 05:13:41;;;;;;;9.47;8.47;;;21.20;99.90;;;;;;5015016;28;20202;-91
2022/05/17 05:16:14;;;;;;;11.10;8.03;;;21.30;99.90;;;;;;4997794;28;20231;-88
2022/05/17 05:18:40;;;;;;;9.03;7.30;;;21.30;99.90;;;;;;4995118;28;20442;-90
2022/05/17 05:21:11;;;;;;;12.20;8.60;;;21.40;99.90;;;;;;5011028;28;20509;-90
2022/05/17 05:23:39;;;;;;;11.77;8.50;;;21.40;99.90;;;;;;4978570;28;20322;-88
2022/05/17 05:26:05;;;;;;;12.20;9.20;;;21.40;99.90;;;;;;5004497;28;21011;-91
2022/05/17 05:28:32;;;;;;;9.70;8.27;;;21.50;99.90;;;;;;5002332;28;20456;-88
2022/05/17 05:30:58;;;;;;;9.27;8.30;;;21.50;99.90;;;;;;5000462;28;20443;-88
2022/05/17 05:33:24;;;;;;;10.03;7.23;;;21.60;99.90;;;;;;4997911;28;20452;-88
2022/05/17 05:35:52;;;;;;;10.50;7.10;;;21.60;99.90;;;;;;4994775;28;20428;-88
2022/05/17 05:38:18;;;;;;;8.57;7.53;;;21.70;99.90;;;;;;5003328;28;20784;-89
2022/05/17 05:40:44;;;;;;;8.90;7.20;;;21.80;99.90;;;;;;4999877;28;20447;-91
2022/05/17 05:43:10;;;;;;;8.07;6.43;;;21.80;99.90;;;;;;5000368;28;20250;-91
2022/05/17 05:45:36;;;;;;;9.73;8.10;;;21.90;99.90;;;;;;4995992;28;20196;-89
2022/05/17 05:48:02;;;;;;;13.33;7.30;;;22.00;99.90;;;;;;4998517;28;20448;-90
2022/05/17 05:50:28;;;;;;;7.73;6.87;;;22.10;99.90;;;;;;4986173;28;20437;-89
2022/05/17 05:53:07;;;;;;;9.00;6.70;;;22.10;99.90;;;;;;4992913;28;20451;-91
2022/05/17 05:55:34;;;;;;;13.17;6.17;;;22.20;99.90;;;;;;4997674;28;20420;-88
2022/05/17 05:58:01;;;;;;;7.73;5.60;;;22.30;99.90;;;;;;4993860;28;20451;-91
2022/05/17 06:00:27;;;;;;;8.67;7.23;;;22.30;99.90;;;;;;5007228;28;20439;-88
2022/05/17 06:02:54;;;;;;;7.57;6.83;;;22.40;99.90;;;;;;5007396;28;20456;-88
2022/05/17 06:05:22;;;;;;;9.80;7.20;;;22.40;99.90;;;;;;4987835;28;20520;-91
2022/05/17 06:07:49;;;;;;;8.80;6.93;;;22.40;99.90;;;;;;4988285;28;20483;-92
2022/05/17 06:10:16;;;;;;;8.30;7.47;;;22.40;99.90;;;;;;4974243;28;20510;-91
2022/05/17 06:12:42;;;;;;;8.27;7.00;;;22.40;99.90;;;;;;4983739;28;20464;-89
2022/05/17 06:15:08;;;;;;;10.03;6.57;;;22.40;99.90;;;;;;4987309;28;20461;-89
2022/05/17 06:17:35;;;;;;;13.73;7.20;;;22.50;99.90;;;;;;4985563;28;20648;-92
2022/05/17 06:20:01;;;;;;;8.27;6.47;;;22.50;99.90;;;;;;4976066;28;20481;-90
2022/05/17 06:22:27;;;;;;;7.27;6.20;;;22.50;99.90;;;;;;4992100;28;20449;-92
2022/05/17 06:24:54;;;;;;;9.03;6.77;;;22.50;99.90;;;;;;4976068;28;20477;-91
2022/05/17 06:27:20;;;;;;;9.10;6.43;;;22.60;99.90;;;;;;4988040;28;20470;-91
2022/05/17 06:29:45;;;;;;;6.73;5.90;;;22.70;99.90;;;;;;4993644;28;20858;-89
2022/05/17 06:32:15;;;;;;;7.93;6.40;;;22.80;99.90;;;;;;5002341;28;20218;-89
2022/05/17 06:34:42;;;;;;;7.50;6.47;;;22.80;99.90;;;;;;4992061;28;20192;-89
2022/05/17 06:37:08;;;;;;;9.87;6.70;;;22.90;99.90;;;;;;4989844;28;20465;-92
2022/05/17 06:39:35;;;;;;;9.23;6.33;;;23.00;99.90;;;;;;4991101;28;20472;-90
2022/05/17 06:42:01;;;;;;;8.00;6.10;;;23.00;99.90;;;;;;4988393;28;20459;-91
2022/05/17 06:44:28;;;;;;;8.37;6.60;;;23.10;99.90;;;;;;4985999;28;20575;-92
2022/05/17 06:46:54;;;;;;;7.40;6.27;;;23.10;99.90;;;;;;4986094;28;20453;-91
2022/05/17 06:49:21;;;;;;;9.77;6.77;;;23.10;99.90;;;;;;4988654;28;20882;-91
2022/05/17 06:51:48;;;;;;;7.40;6.50;;;23.20;99.90;;;;;;4990171;28;20450;-93
2022/05/17 06:54:14;;;;;;;6.40;5.80;;;23.30;99.90;;;;;;4987613;28;20492;-93
2022/05/17 06:56:40;;;;;;;8.00;5.97;;;23.30;99.90;;;;;;4989371;28;20454;-92
2022/05/17 06:59:07;;;;;;;6.10;5.50;;;23.40;99.90;;;;;;4991191;28;20444;-89
2022/05/17 07:01:33;;;;;;;10.37;6.23;;;23.50;99.90;;;;;;4995129;28;20184;-92
2022/05/17 07:03:59;;;;;;;8.40;6.10;;;23.50;99.90;;;;;;4992550;28;20473;-92
2022/05/17 07:06:26;;;;;;;8.47;6.73;;;23.60;99.90;;;;;;4992456;28;20429;-93
2022/05/17 07:08:52;;;;;;;7.50;5.73;;;23.60;99.90;;;;;;4996198;28;20437;-92
2022/05/17 07:14:02;;;;;;;6.70;5.70;;;23.70;99.90;;;;;;5000224;28;20501;-92
2022/05/17 07:16:28;;;;;;;5.77;5.17;;;23.80;99.90;;;;;;4995171;28;20517;-90
2022/05/17 07:18:54;;;;;;;5.23;4.70;;;23.90;99.90;;;;;;4997592;28;20431;-90
2022/05/17 07:21:20;;;;;;;5.50;4.80;;;24.10;99.90;;;;;;4995457;28;20453;-90
2022/05/17 07:23:46;;;;;;;5.70;4.43;;;24.20;99.90;;;;;;4997822;28;20311;-92
2022/05/17 07:26:13;;;;;;;8.90;4.60;;;24.30;99.90;;;;;;4997928;28;20212;-90
2022/05/17 07:28:44;;;;;;;7.27;4.53;;;24.40;99.90;;;;;;4993647;28;20297;-92
2022/05/17 07:31:12;;;;;;;6.73;4.77;;;24.60;99.90;;;;;;4992029;28;20442;-91
2022/05/17 07:33:38;;;;;;;5.90;4.63;;;24.60;99.90;;;;;;4995701;28;20565;-93
2022/05/17 07:36:06;;;;;;;5.23;4.50;;;24.70;99.90;;;;;;4996837;28;20420;-90
2022/05/17 07:38:32;;;;;;;6.17;5.00;;;24.70;99.90;;;;;;4995324;28;20553;-91
2022/05/17 07:40:57;;;;;;;5.77;4.50;;;24.80;99.90;;;;;;4995038;28;20485;-91
2022/05/17 07:43:24;;;;;;;7.47;4.77;;;24.80;99.90;;;;;;4992563;28;20496;-92
2022/05/17 07:45:50;;;;;;;5.53;4.87;;;24.90;99.90;;;;;;4995669;28;20269;-92
2022/05/17 07:48:25;;;;;;;5.67;4.43;;;25.00;99.90;;;;;;4994730;28;20467;-93
2022/05/17 07:50:52;;;;;;;7.30;4.30;;;25.10;99.90;;;;;;4990149;28;20492;-90
2022/05/17 07:53:20;;;;;;;5.20;4.70;;;25.20;99.90;;;;;;4992368;28;20465;-91
2022/05/17 07:55:47;;;;;;;5.27;4.77;;;25.30;99.90;;;;;;4993344;28;21103;-90
2022/05/17 07:58:16;;;;;;;8.20;5.50;;;25.40;99.10;;;;;;4995483;28;20460;-93
2022/05/17 08:00:43;;;;;;;5.10;4.17;;;25.50;99.10;;;;;;4997244;28;20413;-92
2022/05/17 08:03:10;;;;;;;5.60;5.10;;;25.60;98.90;;;;;;5001590;28;20468;-90
2022/05/17 08:05:36;;;;;;;5.73;5.13;;;25.70;98.90;;;;;;4993452;28;20501;-89
2022/05/17 08:08:03;;;;;;;5.93;4.80;;;25.70;98.60;;;;;;4987286;28;20469;-91
2022/05/17 08:10:29;;;;;;;5.40;4.90;;;25.80;98.70;;;;;;4983163;28;20422;-89
2022/05/17 08:12:55;;;;;;;5.00;4.50;;;25.80;98.50;;;;;;4996286;28;20800;-92
2022/05/17 08:15:23;;;;;;;5.40;4.90;;;25.80;98.10;;;;;;5000826;28;20554;-90
2022/05/17 08:17:49;;;;;;;7.13;4.80;;;25.90;98.40;;;;;;4995501;28;20222;-91
2022/05/17 08:20:15;;;;;;;5.97;5.40;;;25.90;98.40;;;;;;4995360;28;20745;-88
2022/05/17 08:22:43;;;;;;;6.30;4.70;;;25.90;98.10;;;;;;4998151;28;20433;-90
2022/05/17 08:27:56;;;;;;;6.03;5.43;;;26.00;98.30;;;;;;5015834;28;20486;-90
2022/05/17 08:30:24;;;;;;;6.50;5.47;;;26.00;98.40;;;;;;4998990;28;20426;-89
2022/05/17 08:36:05;;;;;;;7.70;4.90;;;26.10;97.60;;;;;;5013621;28;20982;-90
2022/05/17 08:38:33;;;;;;;5.23;4.73;;;26.20;96.80;;;;;;4987789;28;20448;-90
2022/05/17 08:41:01;;;;;;;5.83;5.23;;;26.20;97.50;;;;;;4993666;28;20440;-90
2022/05/17 08:43:50;;;;;;;6.03;4.23;;;26.20;97.70;;;;;;5009010;28;20479;-88
2022/05/17 08:46:59;;;;;;;7.30;5.47;;;26.20;97.60;;;;;;5014884;28;20429;-91
2022/05/17 08:49:27;;;;;;;6.10;5.50;;;26.30;97.50;;;;;;4995414;28;20535;-88
2022/05/17 08:52:10;;;;;;;4.97;4.53;;;26.40;97.50;;;;;;4993307;28;20452;-90
2022/05/17 08:54:40;;;;;;;7.47;5.07;;;26.50;97.60;;;;;;5010019;28;20436;-89
2022/05/17 08:57:18;;;;;;;5.10;4.60;;;26.60;97.30;;;;;;5013132;28;20483;-90
2022/05/17 08:59:46;;;;;;;5.60;5.10;;;26.70;97.30;;;;;;5003054;28;20475;-91
2022/05/17 09:02:23;;;;;;;5.40;4.90;;;26.80;97.40;;;;;;4994160;28;20457;-91
2022/05/17 09:05:25;;;;;;;4.67;4.27;;;26.90;97.10;;;;;;5015346;28;20483;-91
2022/05/17 09:07:59;;;;;;;5.10;4.27;;;27.00;95.90;;;;;;4980858;28;20459;-91
2022/05/17 09:10:40;;;;;;;5.27;4.10;;;27.10;95.10;;;;;;4994854;28;20474;-91
2022/05/17 09:13:27;;;;;;;5.40;4.77;;;27.10;94.50;;;;;;5012590;28;20455;-91
2022/05/17 09:15:56;;;;;;;5.90;4.00;;;27.10;93.80;;;;;;4992321;28;20501;-90
2022/05/17 09:18:23;;;;;;;3.93;3.50;;;27.10;93.70;;;;;;4991215;28;20795;-89
2022/05/17 09:20:50;;;;;;;5.33;4.70;;;27.10;93.60;;;;;;4989177;28;20791;-89
2022/05/17 09:23:16;;;;;;;5.37;4.40;;;27.10;93.60;;;;;;4986141;28;20982;-88
2022/05/17 09:26:05;;;;;;;4.23;3.83;;;27.00;93.30;;;;;;4986165;28;20425;-91
2022/05/17 09:29:00;;;;;;;4.90;4.37;;;27.10;93.20;;;;;;4987689;28;20603;-91
2022/05/17 09:31:32;;;;;;;4.60;4.13;;;27.20;94.50;;;;;;4987984;28;20950;-91
2022/05/17 09:34:01;;;;;;;4.90;4.50;;;27.20;92.90;;;;;;4991147;28;20483;-91
2022/05/17 09:36:43;;;;;;;5.30;4.80;;;27.30;94.40;;;;;;4992833;28;20429;-92
2022/05/17 09:39:11;;;;;;;6.13;4.27;;;27.30;93.60;;;;;;4994222;28;20441;-91
2022/05/17 09:41:40;;;;;;;6.43;5.50;;;27.30;92.60;;;;;;4989941;28;20457;-91
2022/05/17 09:44:13;;;;;;;5.60;4.13;;;27.40;94.80;;;;;;4991359;28;20473;-91
2022/05/17 09:46:48;;;;;;;5.03;4.00;;;27.50;94.10;;;;;;4986802;28;20995;-89
2022/05/17 09:52:44;;;;;;;7.40;5.70;;;27.70;94.80;;;;;;4934122;29;20507;-92
2022/05/17 09:55:22;;;;;;;6.80;6.10;;;27.80;94.40;;;;;;4973895;28;20518;-89
2022/05/17 09:58:09;;;;;;;5.60;5.10;;;27.90;94.40;;;;;;4993633;28;20455;-90
2022/05/17 10:00:48;;;;;;;5.60;5.10;;;27.90;94.00;;;;;;4994496;28;20436;-89
2022/05/17 10:03:19;;;;;;;6.30;4.43;;;28.00;93.70;;;;;;4988934;28;20469;-92
2022/05/17 10:06:07;;;;;;;5.90;5.30;;;28.00;93.10;;;;;;4987842;28;21252;-90
2022/05/17 10:08:41;;;;;;;9.00;5.97;;;28.00;93.20;;;;;;4993271;28;20466;-89
2022/05/17 10:11:13;;;;;;;6.50;5.90;;;28.00;94.10;;;;;;5003015;28;20427;-91
2022/05/17 10:13:44;;;;;;;7.90;6.17;;;28.10;94.20;;;;;;4994991;28;20462;-91
2022/05/17 10:16:24;;;;;;;7.03;6.33;;;28.10;93.80;;;;;;5007462;28;20984;-90
2022/05/17 10:19:03;;;;;;;7.10;6.40;;;28.10;94.20;;;;;;5011891;28;20443;-92
2022/05/17 10:21:54;;;;;;;6.57;6.00;;;28.10;94.30;;;;;;5011445;28;20704;-92
2022/05/17 10:24:36;;;;;;;7.47;6.70;;;28.20;94.20;;;;;;4996584;28;20514;-90
2022/05/17 10:27:22;;;;;;;6.90;6.23;;;28.20;94.30;;;;;;4989127;28;20466;-90
2022/05/17 10:29:53;;;;;;;10.30;8.43;;;28.20;94.10;;;;;;5011686;28;20434;-91
2022/05/17 10:32:22;;;;;;;9.53;7.10;;;28.20;94.10;;;;;;5011086;28;20430;-90
2022/05/17 10:35:03;;;;;;;9.07;7.47;;;28.20;94.20;;;;;;4996391;28;20457;-91
2022/05/17 10:37:47;;;;;;;8.50;6.97;;;28.10;93.90;;;;;;5002826;28;20463;-91
2022/05/17 10:40:18;;;;;;;9.30;8.27;;;28.00;93.80;;;;;;4999122;28;20520;-88
2022/05/17 10:42:44;;;;;;;7.10;6.40;;;28.00;94.50;;;;;;5014372;28;20466;-90
2022/05/17 10:45:19;;;;;;;11.10;7.97;;;28.00;94.00;;;;;;4997682;28;20589;-88
2022/05/17 10:48:01;;;;;;;10.10;8.30;;;28.00;93.90;;;;;;4996510;28;20541;-92
2022/05/17 10:50:51;;;;;;;9.60;8.23;;;27.90;93.90;;;;;;4992627;28;20799;-91
2022/05/17 10:53:54;;;;;;;11.00;7.90;;;27.80;94.60;;;;;;4996131;28;21011;-93
2022/05/17 10:56:42;;;;;;;9.60;8.30;;;27.80;92.20;;;;;;4995433;28;20441;-91
2022/05/17 10:59:39;;;;;;;9.03;7.73;;;27.80;94.50;;;;;;5011332;28;20436;-93
2022/05/17 11:02:26;;;;;;;8.77;6.77;;;27.70;94.20;;;;;;4981507;28;20475;-89
2022/05/17 11:05:15;;;;;;;5.83;5.33;;;27.70;92.70;;;;;;5013830;28;20846;-93
2022/05/17 11:08:07;;;;;;;10.67;8.00;;;27.60;92.60;;;;;;4999124;28;20452;-92
2022/05/17 11:11:14;;;;;;;8.20;6.33;;;27.60;93.80;;;;;;4999341;28;20500;-88
2022/05/17 11:14:05;;;;;;;7.03;6.43;;;27.60;93.90;;;;;;4982019;28;20464;-93
2022/05/17 11:16:32;;;;;;;8.00;7.20;;;27.60;93.50;;;;;;5000977;28;20487;-93
2022/05/17 11:19:11;;;;;;;7.33;6.63;;;27.60;93.50;;;;;;4999031;28;21040;-92
2022/05/17 11:21:54;;;;;;;8.47;7.37;;;27.60;93.90;;;;;;5011948;28;21021;-91
2022/05/17 11:24:45;;;;;;;8.90;8.00;;;27.60;94.10;;;;;;5009481;28;20510;-88
2022/05/17 11:27:40;;;;;;;7.93;7.13;;;27.60;94.40;;;;;;4990718;28;20481;-92
2022/05/17 11:30:18;;;;;;;9.67;7.20;;;27.50;94.50;;;;;;5012141;28;20504;-88
2022/05/17 11:33:09;;;;;;;8.30;7.10;;;27.50;93.90;;;;;;4996738;28;20454;-93
2022/05/17 11:35:39;;;;;;;16.10;7.50;;;27.40;92.40;;;;;;4995858;28;20515;-89
2022/05/17 11:38:07;;;;;;;9.60;7.10;;;27.30;92.60;;;;;;5010566;28;20456;-88
2022/05/17 11:40:49;;;;;;;8.83;6.90;;;27.20;92.40;;;;;;5001059;28;20957;-93
2022/05/17 11:46:26;;;;;;;6.93;6.10;;;27.10;91.50;;;;;;5022479;28;20470;-92
2022/05/17 11:49:00;;;;;;;8.83;6.63;;;27.00;91.60;;;;;;5017014;28;20432;-94
2022/05/17 11:51:32;;;;;;;9.03;6.13;;;27.00;92.10;;;;;;4993954;28;20526;-93
2022/05/17 11:54:00;;;;;;;6.70;5.90;;;27.00;91.80;;;;;;4998379;28;20567;-92
2022/05/17 11:56:25;;;;;;;5.83;5.33;;;26.90;91.30;;;;;;5014112;28;20431;-90
2022/05/17 11:58:54;;;;;;;5.93;5.33;;;26.90;91.30;;;;;;5021585;28;20432;-89
2022/05/17 12:01:29;;;;;;;6.60;6.00;;;26.90;91.60;;;;;;4995718;28;20187;-93
2022/05/17 12:04:28;;;;;;;6.97;5.77;;;26.90;91.90;;;;;;4996099;28;20472;-93
2022/05/17 12:06:54;;;;;;;6.10;5.50;;;26.90;91.70;;;;;;5011239;28;20579;-92
2022/05/17 12:09:22;;;;;;;5.70;5.20;;;26.90;91.50;;;;;;4998691;28;20538;-89
2022/05/17 12:12:09;;;;;;;5.80;5.20;;;26.90;91.60;;;;;;5014099;28;20203;-91
2022/05/17 12:14:53;;;;;;;7.70;5.60;;;26.90;92.10;;;;;;5007100;28;20778;-92
2022/05/17 12:17:24;;;;;;;6.67;5.50;;;26.90;91.00;;;;;;4995301;28;20547;-91
2022/05/17 12:20:11;;;;;;;8.53;5.40;;;26.80;91.30;;;;;;5014836;28;20528;-90
2022/05/17 12:22:57;;;;;;;4.67;4.13;;;26.70;90.50;;;;;;4995733;28;20465;-92
2022/05/17 12:25:52;;;;;;;10.43;6.00;;;26.50;90.30;;;;;;4990120;28;20483;-92
2022/05/17 12:28:22;;;;;;;5.80;5.30;;;26.40;91.10;;;;;;5001739;28;20559;-92
2022/05/17 12:30:53;;;;;;;6.93;5.13;;;26.20;90.60;;;;;;4989158;28;20479;-90
2022/05/17 12:33:33;;;;;;;6.37;5.77;;;26.00;90.80;;;;;;5004675;28;20559;-92
2022/05/17 12:36:19;;;;;;;7.50;6.00;;;25.90;90.90;;;;;;5010661;28;20448;-91
2022/05/17 12:44:54;;;;;;;7.47;6.70;;;25.70;99.90;;;;;;4970590;28;21105;-92
2022/05/17 12:47:34;;;;;;;6.90;5.70;;;25.60;99.90;;;;;;4995094;28;20535;-91
2022/05/17 12:50:01;;;;;;;7.40;6.73;;;25.60;99.90;;;;;;5009185;28;20436;-91
2022/05/17 12:52:36;;;;;;;7.43;6.70;;;25.50;99.90;;;;;;4990473;28;20459;-92
2022/05/17 12:55:27;;;;;;;7.33;6.10;;;25.30;99.90;;;;;;4995430;28;20442;-91
2022/05/17 12:57:53;;;;;;;7.73;6.13;;;25.30;99.90;;;;;;4985534;28;20451;-92
2022/05/17 13:00:29;;;;;;;7.53;6.70;;;25.20;99.90;;;;;;4993425;28;20424;-91
2022/05/17 13:03:27;;;;;;;8.23;7.37;;;25.10;99.90;;;;;;4994514;28;20451;-90
2022/05/17 13:05:55;;;;;;;10.03;7.20;;;25.00;99.90;;;;;;4982288;28;20462;-92
2022/05/17 13:08:23;;;;;;;7.17;6.47;;;25.00;99.90;;;;;;4994531;28;20800;-92
2022/05/17 13:11:06;;;;;;;8.07;7.27;;;25.00;99.90;;;;;;5007526;28;20437;-92
2022/05/17 13:13:35;;;;;;;7.77;6.90;;;25.00;99.90;;;;;;4988172;28;20521;-92
2022/05/17 13:16:09;;;;;;;13.70;7.60;;;25.00;99.90;;;;;;4981519;28;20476;-91
2022/05/17 13:18:57;;;;;;;6.03;5.30;;;25.10;99.90;;;;;;4990510;28;20475;-91
2022/05/17 13:21:36;;;;;;;6.47;5.93;;;25.20;99.90;;;;;;5001342;28;20440;-92
2022/05/17 13:24:08;;;;;;;11.00;6.47;;;25.20;99.90;;;;;;4984523;28;20489;-92
2022/05/17 13:26:48;;;;;;;7.10;6.50;;;25.20;99.90;;;;;;4987212;28;20445;-92
2022/05/17 13:29:27;;;;;;;6.70;6.00;;;25.30;99.90;;;;;;4988281;28;20456;-92